createdAt,value
2023-04-19T00:12:23.651Z,9.00
2023-04-19T00:26:38.850Z,9.20
2023-04-19T00:52:58.786Z,10.20
2023-04-19T01:00:17.535Z,8.80
2023-04-19T01:20:46.098Z,8.50
2023-04-19T01:40:35.996Z,8.10
2023-04-19T02:00:54.962Z,7.30
2023-04-19T02:21:03.742Z,7.90
2023-04-19T02:41:12.486Z,7.00
2023-04-19T03:01:03.369Z,6.10
2023-04-19T03:21:32.609Z,6.00
2023-04-19T03:41:24.645Z,6.00
2023-04-19T03:48:02.625Z,6.00
2023-04-19T04:08:32.065Z,5.50
2023-04-19T04:22:32.671Z,6.40
2023-04-19T05:05:33.928Z,2.50
2023-04-19T05:32:06.750Z,4.20
2023-04-19T05:39:23.826Z,2.90
2023-04-19T05:46:02.364Z,2.00
2023-04-19T05:59:49.560Z,2.50
2023-04-19T06:20:19.850Z,3.00
2023-04-19T06:40:11.451Z,2.50
2023-04-19T06:59:43.155Z,2.10
2023-04-19T07:20:05.403Z,2.50
2023-04-19T07:40:22.115Z,2.80
2023-04-19T08:00:14.843Z,2.70
2023-04-19T08:06:41.824Z,2.70
2023-04-19T08:27:04.367Z,3.30
2023-04-19T08:33:49.176Z,4.10
2023-04-19T08:54:18.185Z,4.30
2023-04-19T09:14:16.483Z,4.30
2023-04-19T09:34:17.263Z,4.50
2023-04-19T09:54:48.319Z,3.90
2023-04-19T10:14:37.854Z,5.90
2023-04-19T10:42:13.416Z,6.80
2023-04-19T11:02:17.137Z,4.50
2023-04-19T11:22:09.657Z,3.60
2023-04-19T11:29:15.271Z,6.50
2023-04-19T11:49:03.039Z,4.10
2023-04-19T11:56:01.536Z,9.80
2023-04-19T12:10:10.753Z,4.20
2023-04-19T12:23:11.982Z,4.00
2023-04-19T12:43:40.965Z,3.20
2023-04-19T13:03:59.268Z,2.70
2023-04-19T13:24:25.281Z,2.80
2023-04-19T13:44:54.264Z,4.10
2023-04-19T14:05:24.175Z,4.90
2023-04-19T14:12:35.683Z,4.70
2023-04-19T14:33:03.868Z,4.70
2023-04-19T14:52:53.340Z,2.60
2023-04-19T14:59:39.423Z,3.70
2023-04-19T15:13:39.231Z,3.60
2023-04-19T15:34:09.951Z,3.10
2023-04-19T15:54:39.979Z,2.60
2023-04-19T16:13:54.449Z,2.40
2023-04-19T16:28:28.818Z,3.60
2023-04-19T16:48:16.445Z,2.60
2023-04-19T16:54:58.042Z,2.50
2023-04-19T17:14:50.185Z,3.90
2023-04-19T17:34:39.684Z,4.70
2023-04-19T17:54:30.113Z,5.30
2023-04-19T18:14:22.480Z,6.20
2023-04-19T18:34:52.384Z,6.50
2023-04-19T18:55:19.946Z,4.30
2023-04-19T19:02:19.642Z,4.20
2023-04-19T19:26:12.762Z,5.20
2023-04-19T19:46:58.405Z,4.50
2023-04-19T20:27:10.514Z,6.30
2023-04-19T20:41:10.374Z,7.20
2023-04-19T20:48:13.927Z,6.70
2023-04-19T21:08:03.557Z,7.70
2023-04-19T21:22:18.888Z,8.40
2023-04-19T21:42:59.462Z,9.10
2023-04-19T22:02:49.318Z,8.90
2023-04-19T22:23:10.219Z,8.50
2023-04-19T22:37:10.520Z,8.90
2023-04-19T22:51:10.907Z,7.50
2023-04-19T23:11:00.521Z,7.50
2023-04-19T23:30:51.198Z,6.10
2023-04-19T23:50:40.190Z,7.70
